Time;durP1;ratioP1;P1;durP2;ratioP2;P2;SDS_P1;SDS_P2;PMS_P1;PMS_P2;Temp;Humidity;BMP_temperature;BMP_pressure;BME280_temperature;BME280_humidity;BME280_pressure;Samples;Min_cycle;Max_cycle;Signal;HPM_P1;HPM_P2
2022/11/01 00:01:07;;;;;;;;;;;;;;;14.15;100.00;100809.44;5035004;28;20098;-46
2022/11/01 00:03:32;;;;;;;;;;;;;;;14.22;100.00;100790.72;5036056;28;19919;-48
2022/11/01 00:05:57;;;;;;;;;;;;;;;14.26;100.00;100787.47;5035882;28;19939;-45
2022/11/01 00:08:22;;;;;;;;;;;;;;;14.32;100.00;100781.38;5037047;28;20334;-44
2022/11/01 00:10:48;;;;;;;;;;;;;;;14.39;100.00;100783.28;5035565;28;19912;-47
2022/11/01 00:13:13;;;;;;;;;;;;;;;14.45;100.00;100779.84;5018208;28;19928;-44
2022/11/01 00:15:38;;;;;;;;;;;;;;;14.46;100.00;100774.31;5017835;28;19913;-43
2022/11/01 00:18:03;;;;;;;;;;;;;;;14.47;100.00;100769.75;5036209;28;19947;-43
2022/11/01 00:20:28;;;;;;;;;;;;;;;14.48;100.00;100763.38;5035397;28;19923;-43
2022/11/01 00:22:54;;;;;;;;;;;;;;;14.50;100.00;100761.31;5035185;28;19933;-44
2022/11/01 00:25:19;;;;;;;;;;;;;;;14.53;100.00;100764.44;5006087;28;19913;-44
2022/11/01 00:27:44;;;;;;;;;;;;;;;14.61;100.00;100760.00;5036486;28;20229;-44
2022/11/01 00:30:09;;;;;;;;;;;;;;;14.68;100.00;100759.06;5036075;28;19919;-46
2022/11/01 00:32:35;;;;;;;;;;;;;;;14.76;100.00;100765.34;5035794;28;20125;-46
2022/11/01 00:35:00;;;;;;;;;;;;;;;14.81;100.00;100755.69;5035054;28;20015;-48
2022/11/01 00:37:26;;;;;;;;;;;;;;;15.00;100.00;100758.75;5036394;28;19927;-45
2022/11/01 00:39:52;;;;;;;;;;;;;;;15.14;100.00;100752.50;5035357;28;19916;-44
2022/11/01 00:42:17;;;;;;;;;;;;;;;15.27;100.00;100754.44;5018126;28;20378;-45
2022/11/01 00:44:42;;;;;;;;;;;;;;;15.37;100.00;100754.13;5033726;28;20007;-45
2022/11/01 00:47:07;;;;;;;;;;;;;;;15.38;100.00;100753.09;5035180;28;19917;-43
2022/11/01 00:49:32;;;;;;;;;;;;;;;15.44;100.00;100753.16;5014982;28;20321;-44
2022/11/01 00:51:58;;;;;;;;;;;;;;;15.48;100.00;100753.59;5032263;28;20434;-45
2022/11/01 00:54:23;;;;;;;;;;;;;;;15.54;100.00;100757.34;5035758;28;20350;-43
2022/11/01 00:56:48;;;;;;;;;;;;;;;15.63;100.00;100764.22;5034974;28;19942;-44
2022/11/01 00:59:13;;;;;;;;;;;;;;;15.68;100.00;100751.00;5001356;28;19913;-46
2022/11/01 01:01:39;;;;;;;;;;;;;;;15.66;100.00;100742.31;5034969;28;19920;-44
2022/11/01 01:04:04;;;;;;;;;;;;;;;15.61;100.00;100748.31;5035408;28;19943;-45
2022/11/01 01:06:29;;;;;;;;;;;;;;;15.61;100.00;100740.22;5033965;28;19998;-46
2022/11/01 01:08:56;;;;;;;;;;;;;;;15.59;100.00;100739.56;5035257;28;20105;-44
2022/11/01 01:11:22;;;;;;;;;;;;;;;15.60;100.00;100738.56;5035537;28;20792;-44
2022/11/01 01:13:47;;;;;;;;;;;;;;;15.58;100.00;100746.00;5017557;28;19943;-43
2022/11/01 01:16:12;;;;;;;;;;;;;;;15.62;100.00;100744.56;5033570;28;20094;-44
2022/11/01 01:18:37;;;;;;;;;;;;;;;15.59;100.00;100719.91;5035757;28;19944;-44
2022/11/01 01:21:03;;;;;;;;;;;;;;;15.54;100.00;100727.75;5033944;28;19913;-44
2022/11/01 01:23:28;;;;;;;;;;;;;;;15.51;100.00;100726.25;5033216;28;20026;-45
2022/11/01 01:25:55;;;;;;;;;;;;;;;15.48;100.00;100727.50;5023203;28;21162;-44
2022/11/01 01:28:21;;;;;;;;;;;;;;;15.51;100.00;100734.34;5035230;28;19913;-44
2022/11/01 01:30:46;;;;;;;;;;;;;;;15.54;100.00;100731.25;5033817;28;20182;-45
2022/11/01 01:33:11;;;;;;;;;;;;;;;15.58;100.00;100739.75;5035382;28;19924;-46
2022/11/01 01:35:37;;;;;;;;;;;;;;;15.58;100.00;100740.63;5034556;28;20012;-47
2022/11/01 01:38:02;;;;;;;;;;;;;;;15.62;100.00;100744.56;5035585;28;20293;-44
2022/11/01 01:40:28;;;;;;;;;;;;;;;15.70;100.00;100726.59;5034479;28;19924;-44
2022/11/01 01:42:53;;;;;;;;;;;;;;;15.72;100.00;100721.88;5035568;28;20661;-47
2022/11/01 01:45:21;;;;;;;;;;;;;;;15.76;100.00;100750.91;5026998;28;19974;-49
2022/11/01 01:47:48;;;;;;;;;;;;;;;15.81;100.00;100740.38;5029810;28;19921;-44
2022/11/01 01:50:13;;;;;;;;;;;;;;;15.79;100.00;100723.59;5016036;28;19917;-45
2022/11/01 01:52:47;;;;;;;;;;;;;;;15.77;100.00;100730.22;5035753;28;19958;-43
2022/11/01 01:55:13;;;;;;;;;;;;;;;15.77;100.00;100725.66;5013203;28;20393;-44
2022/11/01 01:57:39;;;;;;;;;;;;;;;15.83;100.00;100719.47;5035542;28;19913;-43
2022/11/01 02:00:05;;;;;;;;;;;;;;;15.90;100.00;100715.97;5034079;28;20315;-44
2022/11/01 02:02:30;;;;;;;;;;;;;;;15.93;100.00;100723.66;5035127;28;20554;-45
2022/11/01 02:04:58;;;;;;;;;;;;;;;15.96;100.00;100720.56;5033558;28;19920;-46
2022/11/01 02:07:24;;;;;;;;;;;;;;;16.00;100.00;100721.81;5034982;28;19924;-44
2022/11/01 02:09:49;;;;;;;;;;;;;;;16.07;100.00;100727.25;5034485;28;20035;-42
2022/11/01 02:12:15;;;;;;;;;;;;;;;16.12;100.00;100730.16;5035152;28;20306;-48
2022/11/01 02:14:41;;;;;;;;;;;;;;;16.15;100.00;100721.69;5034557;28;19916;-45
2022/11/01 02:17:09;;;;;;;;;;;;;;;16.16;100.00;100724.19;5016500;28;19917;-44
2022/11/01 02:19:34;;;;;;;;;;;;;;;16.14;100.00;100733.47;5034456;28;19919;-44
2022/11/01 02:22:15;;;;;;;;;;;;;;;16.18;100.00;100724.81;5012234;28;20291;-48
2022/11/01 02:24:59;;;;;;;;;;;;;;;16.20;100.00;100730.81;5023029;28;20009;-45
2022/11/01 02:27:31;;;;;;;;;;;;;;;16.17;100.00;100731.25;5023672;28;20268;-46
2022/11/01 02:30:02;;;;;;;;;;;;;;;16.16;100.00;100728.75;5032970;28;20364;-43
2022/11/01 02:32:37;;;;;;;;;;;;;;;16.04;100.00;100732.00;5034516;28;20371;-46
2022/11/01 02:35:10;;;;;;;;;;;;;;;16.00;100.00;100727.19;5036915;28;19993;-43
2022/11/01 02:37:46;;;;;;;;;;;;;;;15.99;100.00;100729.06;5038218;28;19995;-47
2022/11/01 02:40:19;;;;;;;;;;;;;;;16.01;100.00;100728.88;5027756;28;19921;-44
2022/11/01 02:42:47;;;;;;;;;;;;;;;15.96;100.00;100739.44;5038581;28;20436;-46
2022/11/01 02:45:27;;;;;;;;;;;;;;;15.92;100.00;100744.38;5035789;28;19955;-43
2022/11/01 02:47:56;;;;;;;;;;;;;;;15.95;100.00;100745.84;5038124;28;19920;-45
2022/11/01 02:50:23;;;;;;;;;;;;;;;15.96;100.00;100747.50;5037450;28;19920;-44
2022/11/01 02:52:48;;;;;;;;;;;;;;;15.91;100.00;100737.31;5038045;28;19913;-46
2022/11/01 02:55:32;;;;;;;;;;;;;;;15.93;100.00;100748.72;5036447;28;20510;-45
2022/11/01 02:58:02;;;;;;;;;;;;;;;16.00;100.00;100749.59;5027694;28;20346;-44
2022/11/01 03:00:29;;;;;;;;;;;;;;;16.01;100.00;100736.97;5036220;28;19934;-44
2022/11/01 03:03:00;;;;;;;;;;;;;;;15.96;100.00;100732.16;5037340;28;20331;-46
2022/11/01 03:05:25;;;;;;;;;;;;;;;15.92;100.00;100749.78;5036866;28;19919;-46
2022/11/01 03:07:53;;;;;;;;;;;;;;;15.93;100.00;100748.72;5037647;28;19912;-45
2022/11/01 03:10:19;;;;;;;;;;;;;;;15.96;100.00;100750.19;5036747;28;20036;-46
2022/11/01 03:12:50;;;;;;;;;;;;;;;15.96;100.00;100756.41;5036184;28;19921;-46
2022/11/01 03:15:38;;;;;;;;;;;;;;;15.98;100.00;100753.53;5026598;28;19916;-49
2022/11/01 03:18:07;;;;;;;;;;;;;;;16.01;100.00;100767.41;5037139;28;19959;-45
2022/11/01 03:20:58;;;;;;;;;;;;;;;16.02;100.00;100769.09;5036493;28;20459;-45
2022/11/01 03:23:28;;;;;;;;;;;;;;;15.96;100.00;100764.50;5037378;28;19943;-43
2022/11/01 03:25:55;;;;;;;;;;;;;;;15.96;100.00;100772.56;5036795;28;19920;-43
2022/11/01 03:28:27;;;;;;;;;;;;;;;15.88;100.00;100783.50;5036908;28;20011;-46
2022/11/01 03:30:57;;;;;;;;;;;;;;;15.89;100.00;100787.88;5035723;28;19921;-46
2022/11/01 03:33:23;;;;;;;;;;;;;;;15.92;100.00;100803.63;5037610;28;19913;-45
2022/11/01 03:35:51;;;;;;;;;;;;;;;15.89;100.00;100809.41;5035268;28;19959;-43
2022/11/01 03:38:18;;;;;;;;;;;;;;;15.86;100.00;100799.03;5037641;28;19912;-47
2022/11/01 03:40:48;;;;;;;;;;;;;;;15.83;100.00;100812.88;5033105;28;19920;-47
2022/11/01 03:43:15;;;;;;;;;;;;;;;15.83;100.00;100824.50;5034368;28;19916;-43
2022/11/01 03:45:41;;;;;;;;;;;;;;;15.82;100.00;100827.38;5030042;28;20144;-44
2022/11/01 03:48:07;;;;;;;;;;;;;;;15.72;100.00;100821.47;5034212;28;20213;-43
2022/11/01 03:50:33;;;;;;;;;;;;;;;15.62;100.00;100824.50;5032038;28;21233;-44
2022/11/01 03:52:58;;;;;;;;;;;;;;;15.51;100.00;100820.47;5032789;28;19925;-44
2022/11/01 03:55:24;;;;;;;;;;;;;;;15.39;100.00;100839.00;5031652;28;20421;-43
2022/11/01 03:57:50;;;;;;;;;;;;;;;15.29;100.00;100835.78;5033739;28;19916;-45
2022/11/01 04:00:16;;;;;;;;;;;;;;;15.20;100.00;100842.34;5030744;28;20206;-47
2022/11/01 04:02:42;;;;;;;;;;;;;;;15.21;100.00;100854.78;5018164;28;19916;-45
2022/11/01 04:05:07;;;;;;;;;;;;;;;15.10;100.00;100869.56;5016704;28;20328;-45
2022/11/01 04:07:33;;;;;;;;;;;;;;;14.97;100.00;100878.31;5034303;28;20402;-43
2022/11/01 04:09:58;;;;;;;;;;;;;;;14.91;99.40;100884.44;5031935;28;20941;-45
2022/11/01 04:12:23;;;;;;;;;;;;;;;14.85;98.91;100891.41;5032625;28;19983;-46
2022/11/01 04:20:31;;;;;;;;;;;;;;;14.66;99.79;100906.28;5031419;28;19978;-44
2022/11/01 04:22:57;;;;;;;;;;;;;;;14.53;100.00;100920.31;5031420;28;19970;-44
2022/11/01 04:25:22;;;;;;;;;;;;;;;14.43;100.00;100917.09;5031618;28;20400;-46
2022/11/01 04:27:47;;;;;;;;;;;;;;;14.35;100.00;100930.59;5032061;28;19937;-45
2022/11/01 04:30:12;;;;;;;;;;;;;;;14.25;100.00;100941.59;5031880;28;20271;-43
2022/11/01 04:32:41;;;;;;;;;;;;;;;14.17;100.00;100939.84;5033119;28;19982;-45
2022/11/01 04:35:06;;;;;;;;;;;;;;;14.14;100.00;100936.69;5018078;28;19921;-43
2022/11/01 04:37:31;;;;;;;;;;;;;;;14.16;100.00;100956.16;5035964;28;20016;-48
2022/11/01 04:39:57;;;;;;;;;;;;;;;14.16;100.00;100945.41;5035034;28;19920;-43
2022/11/01 04:42:22;;;;;;;;;;;;;;;14.14;100.00;100948.25;5035957;28;20259;-45
2022/11/01 04:44:48;;;;;;;;;;;;;;;14.04;100.00;100961.13;5033731;28;19948;-42
2022/11/01 04:47:13;;;;;;;;;;;;;;;14.00;100.00;100957.09;5035598;28;20736;-43
2022/11/01 04:49:38;;;;;;;;;;;;;;;13.99;100.00;100966.19;5034970;28;19912;-44
2022/11/01 04:52:03;;;;;;;;;;;;;;;13.94;100.00;100973.97;5033340;28;19921;-44
2022/11/01 04:54:32;;;;;;;;;;;;;;;13.88;100.00;100978.19;5036129;28;20244;-44
2022/11/01 04:56:57;;;;;;;;;;;;;;;13.82;100.00;100983.47;5031763;28;19913;-44
2022/11/01 04:59:22;;;;;;;;;;;;;;;13.73;100.00;101002.28;5036047;28;19924;-46
2022/11/01 05:01:47;;;;;;;;;;;;;;;13.74;100.00;101000.44;5034001;28;19920;-45
2022/11/01 05:04:13;;;;;;;;;;;;;;;13.76;100.00;101003.78;5034923;28;20295;-43
2022/11/01 05:06:38;;;;;;;;;;;;;;;13.71;100.00;101016.91;5035351;28;19925;-44
2022/11/01 05:09:03;;;;;;;;;;;;;;;13.64;100.00;101024.00;5035761;28;19913;-45
2022/11/01 05:11:28;;;;;;;;;;;;;;;13.60;100.00;101027.03;5035499;28;20380;-47
2022/11/01 05:13:53;;;;;;;;;;;;;;;13.61;100.00;101027.84;5035316;28;19927;-43
2022/11/01 05:16:18;;;;;;;;;;;;;;;13.56;100.00;101024.84;5033696;28;20362;-44
2022/11/01 05:18:44;;;;;;;;;;;;;;;13.51;100.00;101024.56;5030814;28;19916;-45
2022/11/01 05:21:09;;;;;;;;;;;;;;;13.52;100.00;101031.59;5032186;28;19928;-42
2022/11/01 05:23:34;;;;;;;;;;;;;;;13.47;100.00;101029.44;5015125;28;19917;-44
2022/11/01 05:25:59;;;;;;;;;;;;;;;13.46;100.00;101043.88;5028883;28;19968;-46
2022/11/01 05:28:25;;;;;;;;;;;;;;;13.37;99.98;101045.78;5035687;28;19967;-43
2022/11/01 05:30:50;;;;;;;;;;;;;;;13.33;100.00;101057.84;5032624;28;19917;-45
2022/11/01 05:33:15;;;;;;;;;;;;;;;13.24;100.00;101062.38;5035297;28;20554;-46
2022/11/01 05:35:40;;;;;;;;;;;;;;;13.21;100.00;101056.53;5033517;28;19917;-44
2022/11/01 05:38:05;;;;;;;;;;;;;;;13.18;100.00;101060.38;5036029;28;20478;-46
2022/11/01 05:40:31;;;;;;;;;;;;;;;13.12;100.00;101050.34;5016082;28;19931;-45
2022/11/01 05:42:57;;;;;;;;;;;;;;;13.05;100.00;101070.81;5028005;28;20020;-45
2022/11/01 05:45:22;;;;;;;;;;;;;;;13.01;100.00;101074.84;5031037;28;20375;-43
2022/11/01 05:47:47;;;;;;;;;;;;;;;12.96;100.00;101071.84;5026851;28;19920;-46
2022/11/01 05:50:14;;;;;;;;;;;;;;;12.93;100.00;101061.47;5031859;28;19925;-45
2022/11/01 05:52:39;;;;;;;;;;;;;;;12.91;100.00;101066.16;5035283;28;19992;-45
2022/11/01 05:55:05;;;;;;;;;;;;;;;12.87;100.00;101068.34;5033883;28;19917;-43
2022/11/01 05:57:31;;;;;;;;;;;;;;;12.85;100.00;101075.72;5035374;28;19917;-43
2022/11/01 05:59:56;;;;;;;;;;;;;;;12.83;100.00;101073.22;5031835;28;20311;-44
2022/11/01 06:02:21;;;;;;;;;;;;;;;12.76;100.00;101082.91;5034926;28;19917;-46
2022/11/01 06:04:46;;;;;;;;;;;;;;;12.75;100.00;101075.91;5033885;28;20371;-45
2022/11/01 06:07:12;;;;;;;;;;;;;;;12.77;100.00;101084.59;5034585;28;19924;-44
2022/11/01 06:09:37;;;;;;;;;;;;;;;12.74;100.00;101095.66;5036441;28;20003;-44
2022/11/01 06:12:02;;;;;;;;;;;;;;;12.74;100.00;101095.66;5038888;28;19924;-46
2022/11/01 06:14:28;;;;;;;;;;;;;;;12.72;100.00;101124.47;5036252;28;20054;-45
2022/11/01 06:16:53;;;;;;;;;;;;;;;12.71;100.00;101108.56;5035995;28;19947;-43
2022/11/01 06:19:19;;;;;;;;;;;;;;;12.71;100.00;101103.19;5034683;28;19924;-44
2022/11/01 06:21:44;;;;;;;;;;;;;;;12.72;99.71;101113.75;5036976;28;20493;-41
2022/11/01 06:24:10;;;;;;;;;;;;;;;12.80;99.04;101131.69;5037844;28;19913;-44
2022/11/01 06:26:35;;;;;;;;;;;;;;;12.78;98.04;101110.41;5038296;28;20011;-47
2022/11/01 06:29:03;;;;;;;;;;;;;;;12.79;97.86;101127.31;5036503;28;19924;-44
2022/11/01 06:31:29;;;;;;;;;;;;;;;12.74;97.52;101135.84;5032098;28;19916;-44
2022/11/01 06:33:54;;;;;;;;;;;;;;;12.71;97.17;101148.75;5038643;28;19920;-43
2022/11/01 06:36:21;;;;;;;;;;;;;;;12.67;97.47;101167.03;5037410;28;20337;-46
2022/11/01 06:38:46;;;;;;;;;;;;;;;12.63;97.62;101161.16;5038428;28;19913;-44
2022/11/01 06:41:11;;;;;;;;;;;;;;;12.59;97.99;101148.25;5028096;28;19917;-44
2022/11/01 06:43:36;;;;;;;;;;;;;;;12.53;98.56;101163.16;5038553;28;19913;-46
2022/11/01 06:46:02;;;;;;;;;;;;;;;12.54;98.33;101151.44;5034378;28;19964;-44
2022/11/01 06:48:27;;;;;;;;;;;;;;;12.50;99.12;101158.97;5038264;28;19963;-44
2022/11/01 06:50:54;;;;;;;;;;;;;;;12.43;99.64;101165.16;5035398;28;20175;-44
2022/11/01 06:53:19;;;;;;;;;;;;;;;12.36;100.00;101159.63;5025327;28;19917;-43
2022/11/01 06:55:44;;;;;;;;;;;;;;;12.35;100.00;101165.16;5037584;28;19950;-45
2022/11/01 06:58:10;;;;;;;;;;;;;;;12.35;100.00;101165.16;5038535;28;19985;-47
2022/11/01 07:00:35;;;;;;;;;;;;;;;12.39;100.00;101166.47;5035305;28;19916;-45
2022/11/01 07:03:04;;;;;;;;;;;;;;;12.36;100.00;101173.03;5037209;28;19924;-44
2022/11/01 07:05:31;;;;;;;;;;;;;;;12.36;100.00;101183.75;5034520;28;19958;-44
2022/11/01 07:07:56;;;;;;;;;;;;;;;12.35;100.00;101195.44;5037924;28;20284;-47
2022/11/01 07:10:22;;;;;;;;;;;;;;;12.35;100.00;101203.47;5035719;28;19917;-44
2022/11/01 07:12:47;;;;;;;;;;;;;;;12.34;100.00;101200.97;5036872;28;19924;-44
2022/11/01 07:15:13;;;;;;;;;;;;;;;12.32;100.00;101198.44;5027681;28;20438;-45
2022/11/01 07:17:38;;;;;;;;;;;;;;;12.29;100.00;101202.31;5037963;28;19913;-47
2022/11/01 07:20:04;;;;;;;;;;;;;;;12.30;100.00;101214.69;5034137;28;20338;-49
2022/11/01 07:22:29;;;;;;;;;;;;;;;12.29;100.00;101223.72;5037113;28;20386;-45
2022/11/01 07:24:54;;;;;;;;;;;;;;;12.32;100.00;101234.13;5034753;28;19916;-47
2022/11/01 07:27:19;;;;;;;;;;;;;;;12.29;100.00;101242.47;5037593;28;20358;-43
2022/11/01 07:29:44;;;;;;;;;;;;;;;12.26;100.00;101232.09;5036304;28;20122;-45
2022/11/01 07:32:10;;;;;;;;;;;;;;;12.28;100.00;101237.28;5034967;28;20287;-44
2022/11/01 07:34:35;;;;;;;;;;;;;;;12.29;100.00;101247.00;5036817;28;19913;-44
2022/11/01 07:37:00;;;;;;;;;;;;;;;12.29;100.00;101247.00;5037002;28;19913;-45
2022/11/01 07:39:25;;;;;;;;;;;;;;;12.25;100.00;101259.88;5036787;28;19921;-44
2022/11/01 07:41:53;;;;;;;;;;;;;;;12.24;100.00;101252.84;5034751;28;20249;-47
2022/11/01 07:44:18;;;;;;;;;;;;;;;12.24;100.00;101258.19;5035906;28;20291;-46
2022/11/01 07:46:43;;;;;;;;;;;;;;;12.25;100.00;101251.84;5026416;28;19925;-42
2022/11/01 07:49:08;;;;;;;;;;;;;;;12.27;100.00;101267.72;5033881;28;20013;-46
2022/11/01 07:51:34;;;;;;;;;;;;;;;12.25;100.00;101261.69;5035622;28;19913;-45
2022/11/01 07:53:59;;;;;;;;;;;;;;;12.26;100.00;101269.56;5029190;28;19927;-46
2022/11/01 07:56:24;;;;;;;;;;;;;;;12.25;100.00;101270.59;5034976;28;19913;-45
2022/11/01 07:58:49;;;;;;;;;;;;;;;12.26;100.00;101291.00;5015752;28;20240;-42
2022/11/01 08:01:14;;;;;;;;;;;;;;;12.27;100.00;101275.75;5033948;28;19917;-45
2022/11/01 08:03:40;;;;;;;;;;;;;;;12.27;100.00;101281.97;5037166;28;19913;-44
2022/11/01 08:06:05;;;;;;;;;;;;;;;12.27;100.00;101283.78;5035384;28;20277;-46
2022/11/01 08:08:30;;;;;;;;;;;;;;;12.28;100.00;101283.63;5013709;28;19964;-45
2022/11/01 08:10:58;;;;;;;;;;;;;;;12.27;100.00;101287.34;5034973;28;19971;-43
2022/11/01 08:13:23;;;;;;;;;;;;;;;12.29;100.00;101279.97;5036605;28;20478;-45
2022/11/01 08:15:50;;;;;;;;;;;;;;;12.32;100.00;101289.50;5032857;28;20197;-42
2022/11/01 08:18:16;;;;;;;;;;;;;;;12.31;100.00;101288.66;5036926;28;19995;-42
2022/11/01 08:20:42;;;;;;;;;;;;;;;12.35;100.00;101307.09;5032548;28;19921;-43
2022/11/01 08:23:08;;;;;;;;;;;;;;;12.35;100.00;101305.25;5031681;28;19920;-44
2022/11/01 08:25:33;;;;;;;;;;;;;;;12.37;100.00;101297.88;5035807;28;20330;-45
2022/11/01 08:27:59;;;;;;;;;;;;;;;12.40;100.00;101310.13;5036019;28;20311;-44
2022/11/01 08:30:24;;;;;;;;;;;;;;;12.45;100.00;101307.81;5025297;28;19928;-43
2022/11/01 08:32:56;;;;;;;;;;;;;;;12.46;100.00;101315.69;5033095;28;20294;-46
2022/11/01 08:35:21;;;;;;;;;;;;;;;12.50;100.00;101318.88;5035410;28;19936;-44
2022/11/01 08:37:47;;;;;;;;;;;;;;;12.55;98.65;101313.03;5035353;28;19923;-47
2022/11/01 08:40:13;;;;;;;;;;;;;;;12.56;99.53;101320.06;5032265;28;19927;-44
2022/11/01 08:42:38;;;;;;;;;;;;;;;12.59;98.49;101312.56;5033059;28;19913;-43
2022/11/01 08:45:03;;;;;;;;;;;;;;;12.61;98.64;101321.28;5033498;28;20282;-46
2022/11/01 08:47:28;;;;;;;;;;;;;;;12.62;98.81;101311.38;5040130;28;19920;-44
2022/11/01 08:49:53;;;;;;;;;;;;;;;12.65;98.52;101336.00;5033770;28;19913;-45
2022/11/01 08:52:19;;;;;;;;;;;;;;;12.66;97.91;101323.44;5036229;28;20004;-45
2022/11/01 08:54:44;;;;;;;;;;;;;;;12.69;98.66;101340.06;5035172;28;19923;-45
2022/11/01 08:57:09;;;;;;;;;;;;;;;12.73;98.66;101332.53;5035664;28;20083;-43
2022/11/01 08:59:34;;;;;;;;;;;;;;;12.76;98.42;101339.38;5033794;28;19982;-43
2022/11/01 09:01:59;;;;;;;;;;;;;;;12.80;98.58;101332.72;5034657;28;20027;-46
2022/11/01 09:04:25;;;;;;;;;;;;;;;12.83;97.51;101346.63;5034618;28;19920;-42
2022/11/01 09:06:50;;;;;;;;;;;;;;;12.84;97.81;101342.91;5033930;28;19925;-43
2022/11/01 09:09:15;;;;;;;;;;;;;;;12.85;97.27;101335.75;5034693;28;20441;-43
2022/11/01 09:11:40;;;;;;;;;;;;;;;12.87;96.45;101342.59;5033540;28;19929;-42
2022/11/01 09:14:05;;;;;;;;;;;;;;;12.90;97.30;101337.91;5034352;28;20943;-44
2022/11/01 09:16:32;;;;;;;;;;;;;;;12.92;96.75;101334.06;5033768;28;19921;-45
2022/11/01 09:19:00;;;;;;;;;;;;;;;12.97;96.95;101338.94;5034765;28;19916;-44
2022/11/01 09:21:25;;;;;;;;;;;;;;;13.00;97.68;101349.31;5034286;28;19913;-43
2022/11/01 09:23:50;;;;;;;;;;;;;;;13.04;98.12;101342.66;5034257;28;19921;-46
2022/11/01 09:26:16;;;;;;;;;;;;;;;13.06;96.95;101356.72;5016822;28;20225;-44
2022/11/01 09:28:41;;;;;;;;;;;;;;;13.09;96.79;101359.06;5034818;28;19928;-43
2022/11/01 09:31:08;;;;;;;;;;;;;;;13.11;96.79;101348.19;5031531;28;19921;-44
2022/11/01 09:33:33;;;;;;;;;;;;;;;13.16;96.77;101361.94;5030382;28;20021;-43
2022/11/01 09:35:58;;;;;;;;;;;;;;;13.17;96.82;101358.22;5033302;28;19960;-45
2022/11/01 09:38:24;;;;;;;;;;;;;;;13.20;96.22;101374.00;5035243;28;20409;-47
2022/11/01 09:40:59;;;;;;;;;;;;;;;13.20;96.63;101368.63;5033657;28;20046;-42
2022/11/01 09:43:28;;;;;;;;;;;;;;;13.25;96.89;101382.38;5033280;28;20829;-43
2022/11/01 09:45:57;;;;;;;;;;;;;;;13.29;96.90;101393.63;5032780;28;19919;-46
2022/11/01 09:48:24;;;;;;;;;;;;;;;13.34;96.34;101400.22;5034771;28;19991;-44
2022/11/01 09:50:49;;;;;;;;;;;;;;;13.37;96.58;101393.66;5034199;28;19913;-44
2022/11/01 09:53:20;;;;;;;;;;;;;;;13.40;97.36;101412.94;5026182;28;19913;-44
2022/11/01 09:55:50;;;;;;;;;;;;;;;13.48;96.61;101404.09;5033512;28;19913;-44
